createdAt,value
2023-01-19T00:01:40.241Z,100.00
2023-01-19T00:04:06.813Z,100.00
2023-01-19T00:06:33.491Z,100.00
2023-01-19T00:09:02.339Z,100.00
2023-01-19T00:11:31.120Z,100.00
2023-01-19T00:13:58.807Z,100.00
2023-01-19T00:16:27.795Z,100.00
2023-01-19T00:18:54.345Z,100.00
2023-01-19T00:21:25.549Z,100.00
2023-01-19T00:23:52.763Z,100.00
2023-01-19T00:26:22.360Z,100.00
2023-01-19T00:28:50.293Z,100.00
2023-01-19T00:31:17.016Z,100.00
2023-01-19T00:33:48.870Z,100.00
2023-01-19T00:36:17.660Z,100.00
2023-01-19T00:38:44.198Z,100.00
2023-01-19T00:41:10.780Z,100.00
2023-01-19T00:43:37.327Z,100.00
2023-01-19T00:46:06.559Z,100.00
2023-01-19T00:48:37.907Z,100.00
2023-01-19T00:51:04.762Z,100.00
2023-01-19T00:53:32.560Z,100.00
2023-01-19T00:56:03.899Z,100.00
2023-01-19T00:58:32.703Z,100.00
2023-01-19T01:01:03.924Z,100.00
2023-01-19T01:03:32.808Z,100.00
2023-01-19T01:05:59.564Z,100.00
2023-01-19T01:08:26.203Z,100.00
2023-01-19T01:10:52.804Z,100.00
2023-01-19T01:13:22.504Z,100.00
2023-01-19T01:15:54.791Z,100.00
2023-01-19T01:18:24.208Z,100.00
2023-01-19T01:20:51.329Z,100.00
2023-01-19T01:23:22.868Z,100.00
2023-01-19T01:25:49.621Z,100.00
2023-01-19T01:28:16.138Z,100.00
2023-01-19T01:30:47.581Z,100.00
2023-01-19T01:33:16.351Z,100.00
2023-01-19T01:36:05.129Z,100.00
2023-01-19T01:38:31.773Z,100.00
2023-01-19T01:41:00.670Z,100.00
2023-01-19T01:43:48.600Z,100.00
2023-01-19T01:46:20.029Z,100.00
2023-01-19T01:48:54.327Z,100.00
2023-01-19T01:51:37.288Z,100.00
2023-01-19T01:54:12.938Z,100.00
2023-01-19T01:56:45.644Z,100.00
2023-01-19T01:59:26.156Z,100.00
2023-01-19T02:02:14.464Z,100.00
2023-01-19T02:04:50.387Z,100.00
2023-01-19T02:07:45.256Z,100.00
2023-01-19T02:10:30.604Z,100.00
2023-01-19T02:13:16.248Z,100.00
2023-01-19T02:15:42.802Z,100.00
2023-01-19T02:18:11.721Z,100.00
2023-01-19T02:20:40.834Z,100.00
2023-01-19T02:23:16.587Z,100.00
2023-01-19T02:25:43.230Z,100.00
2023-01-19T02:28:10.944Z,100.00
2023-01-19T02:30:40.908Z,100.00
2023-01-19T02:33:09.764Z,100.00
2023-01-19T02:35:40.547Z,100.00
2023-01-19T02:38:11.176Z,100.00
2023-01-19T02:40:40.190Z,100.00
2023-01-19T02:43:09.471Z,100.00
2023-01-19T02:45:37.742Z,100.00
2023-01-19T02:48:07.732Z,100.00
2023-01-19T02:50:50.590Z,100.00
2023-01-19T02:53:38.546Z,100.00
2023-01-19T02:56:13.945Z,100.00
2023-01-19T02:58:49.626Z,100.00
2023-01-19T03:01:26.131Z,100.00
2023-01-19T03:04:01.647Z,100.00
2023-01-19T03:06:57.213Z,100.00
2023-01-19T03:09:43.318Z,100.00
2023-01-19T03:12:32.427Z,100.00
2023-01-19T03:15:05.928Z,100.00
2023-01-19T03:17:36.170Z,100.00
2023-01-19T03:20:06.798Z,100.00
2023-01-19T03:22:38.303Z,100.00
2023-01-19T03:25:10.350Z,100.00
2023-01-19T03:27:40.979Z,100.00
2023-01-19T03:30:22.233Z,100.00
2023-01-19T03:32:56.652Z,100.00
2023-01-19T03:35:26.258Z,100.00
2023-01-19T03:37:56.019Z,100.00
2023-01-19T03:40:28.975Z,100.00
2023-01-19T03:42:56.569Z,100.00
2023-01-19T03:45:26.099Z,100.00
2023-01-19T03:47:56.375Z,100.00
2023-01-19T03:50:32.194Z,100.00
2023-01-19T03:53:10.037Z,100.00
2023-01-19T03:55:38.550Z,100.00
2023-01-19T03:58:05.305Z,100.00
2023-01-19T04:00:32.445Z,100.00
2023-01-19T04:02:59.428Z,100.00
2023-01-19T04:05:30.927Z,100.00
2023-01-19T04:08:00.739Z,100.00
2023-01-19T04:10:30.319Z,100.00
2023-01-19T04:13:03.232Z,100.00
2023-01-19T04:15:32.949Z,100.00
2023-01-19T04:18:02.910Z,100.00
2023-01-19T04:20:29.568Z,100.00
2023-01-19T04:23:01.137Z,100.00
2023-01-19T04:25:31.680Z,100.00
2023-01-19T04:27:58.444Z,100.00
2023-01-19T04:30:27.816Z,100.00
2023-01-19T04:32:55.526Z,100.00
2023-01-19T04:35:24.882Z,100.00
2023-01-19T04:37:51.579Z,100.00
2023-01-19T04:40:20.928Z,100.00
2023-01-19T04:42:47.490Z,100.00
2023-01-19T04:45:17.472Z,100.00
2023-01-19T04:47:44.097Z,100.00
2023-01-19T04:50:11.439Z,100.00
2023-01-19T04:52:42.476Z,100.00
2023-01-19T04:55:12.845Z,100.00
2023-01-19T04:57:39.485Z,100.00
2023-01-19T05:00:07.195Z,100.00
2023-01-19T05:02:36.748Z,100.00
2023-01-19T05:05:06.072Z,100.00
2023-01-19T05:07:32.680Z,100.00
2023-01-19T05:09:59.319Z,100.00
2023-01-19T05:12:25.892Z,100.00
2023-01-19T05:14:52.493Z,100.00
2023-01-19T05:17:21.198Z,100.00
2023-01-19T05:19:48.879Z,100.00
2023-01-19T05:22:19.227Z,100.00
2023-01-19T05:24:45.799Z,100.00
2023-01-19T05:27:12.641Z,100.00
2023-01-19T05:29:39.173Z,100.00
2023-01-19T05:32:08.102Z,100.00
2023-01-19T05:34:34.739Z,100.00
2023-01-19T05:37:03.817Z,100.00
2023-01-19T05:39:34.048Z,100.00
2023-01-19T05:42:00.661Z,100.00
2023-01-19T05:44:27.181Z,100.00
2023-01-19T05:46:53.862Z,100.00
2023-01-19T05:49:20.463Z,100.00
2023-01-19T05:51:49.503Z,100.00
2023-01-19T05:54:18.765Z,100.00
2023-01-19T05:56:45.667Z,100.00
2023-01-19T05:59:15.312Z,100.00
2023-01-19T06:01:42.010Z,100.00
2023-01-19T06:04:10.985Z,100.00
2023-01-19T06:06:42.275Z,100.00
2023-01-19T06:09:11.394Z,100.00
2023-01-19T06:11:37.961Z,100.00
2023-01-19T06:14:07.000Z,100.00
2023-01-19T06:16:33.659Z,100.00
2023-01-19T06:19:00.353Z,100.00
2023-01-19T06:21:32.681Z,100.00
2023-01-19T06:24:01.539Z,100.00
2023-01-19T06:26:30.430Z,100.00
2023-01-19T06:28:59.399Z,100.00
2023-01-19T06:31:26.038Z,100.00
2023-01-19T06:33:55.121Z,100.00
2023-01-19T06:36:21.680Z,100.00
2023-01-19T06:38:50.773Z,100.00
2023-01-19T06:41:19.996Z,100.00
2023-01-19T06:43:51.739Z,100.00
2023-01-19T06:46:18.273Z,100.00
2023-01-19T06:48:49.550Z,100.00
2023-01-19T06:51:16.127Z,100.00
2023-01-19T06:53:42.699Z,100.00
2023-01-19T06:56:09.703Z,100.00
2023-01-19T06:58:36.883Z,100.00
2023-01-19T07:01:05.205Z,100.00
2023-01-19T07:03:34.835Z,100.00
2023-01-19T07:06:02.553Z,100.00
2023-01-19T07:08:32.668Z,100.00
2023-01-19T07:11:26.541Z,100.00
2023-01-19T07:13:57.128Z,100.00
2023-01-19T07:16:30.962Z,100.00
2023-01-19T07:18:57.528Z,100.00
2023-01-19T07:21:29.128Z,100.00
2023-01-19T07:24:00.637Z,100.00
2023-01-19T07:26:28.027Z,100.00
2023-01-19T07:28:54.951Z,100.00
2023-01-19T07:31:21.541Z,100.00
2023-01-19T07:33:48.245Z,100.00
2023-01-19T07:36:17.146Z,100.00
2023-01-19T07:38:43.716Z,100.00
2023-01-19T07:41:13.271Z,100.00
2023-01-19T07:43:39.977Z,100.00
2023-01-19T07:46:09.318Z,100.00
2023-01-19T07:48:38.181Z,100.00
2023-01-19T07:51:10.461Z,100.00
2023-01-19T07:53:41.993Z,100.00
2023-01-19T07:56:08.908Z,100.00
2023-01-19T07:58:40.734Z,100.00
2023-01-19T08:01:14.603Z,100.00
2023-01-19T08:03:41.348Z,100.00
2023-01-19T08:06:27.018Z,100.00
2023-01-19T08:08:53.574Z,100.00
2023-01-19T08:11:20.136Z,100.00
2023-01-19T08:13:49.493Z,100.00
2023-01-19T08:16:18.981Z,100.00
2023-01-19T08:18:48.431Z,100.00
2023-01-19T08:21:19.716Z,100.00
2023-01-19T08:23:57.828Z,100.00
2023-01-19T08:26:31.423Z,100.00
2023-01-19T08:29:03.488Z,100.00
2023-01-19T08:31:30.247Z,100.00
2023-01-19T08:33:59.660Z,100.00
2023-01-19T08:36:26.244Z,100.00
2023-01-19T08:38:55.325Z,100.00
2023-01-19T08:41:22.337Z,100.00
2023-01-19T08:43:52.138Z,100.00
2023-01-19T08:46:21.978Z,100.00
2023-01-19T08:48:51.469Z,100.00
2023-01-19T08:51:21.154Z,100.00
2023-01-19T08:53:50.297Z,100.00
2023-01-19T08:56:18.551Z,100.00
2023-01-19T08:58:53.665Z,100.00
2023-01-19T09:01:30.109Z,100.00
2023-01-19T09:03:59.674Z,100.00
2023-01-19T09:06:26.300Z,100.00
2023-01-19T09:08:55.845Z,100.00
2023-01-19T09:11:24.724Z,100.00
2023-01-19T09:13:53.469Z,100.00
2023-01-19T09:16:20.062Z,100.00
2023-01-19T09:18:46.657Z,100.00
2023-01-19T09:21:15.497Z,100.00
2023-01-19T09:23:44.646Z,100.00
2023-01-19T09:26:11.500Z,98.06
2023-01-19T09:28:38.409Z,100.00
2023-01-19T09:31:09.189Z,98.04
2023-01-19T09:33:38.223Z,100.00
2023-01-19T09:36:05.063Z,100.00
2023-01-19T09:38:32.899Z,100.00
2023-01-19T09:41:00.615Z,100.00
2023-01-19T09:43:50.748Z,100.00
2023-01-19T09:46:27.400Z,100.00
2023-01-19T09:49:04.786Z,100.00
2023-01-19T09:51:39.470Z,100.00
2023-01-19T09:54:29.862Z,100.00
2023-01-19T09:56:56.436Z,100.00
2023-01-19T09:59:31.520Z,100.00
2023-01-19T10:02:28.176Z,100.00
2023-01-19T10:05:22.341Z,100.00
2023-01-19T10:08:26.749Z,100.00
2023-01-19T10:10:55.412Z,100.00
2023-01-19T10:13:52.302Z,100.00
2023-01-19T10:16:53.198Z,100.00
2023-01-19T10:19:25.113Z,100.00
2023-01-19T10:21:55.373Z,100.00
2023-01-19T10:24:33.184Z,97.80
2023-01-19T10:27:02.257Z,100.00
2023-01-19T10:29:37.296Z,99.83
2023-01-19T10:32:09.037Z,100.00
2023-01-19T10:34:38.871Z,97.99
2023-01-19T10:37:16.004Z,100.00
2023-01-19T10:39:44.082Z,100.00
2023-01-19T10:42:15.291Z,100.00
2023-01-19T10:44:42.142Z,99.76
2023-01-19T10:47:17.993Z,98.87
2023-01-19T10:49:45.290Z,98.91
2023-01-19T10:52:35.740Z,100.00
2023-01-19T10:55:07.041Z,100.00
2023-01-19T10:57:43.366Z,96.38
2023-01-19T11:00:38.098Z,96.73
2023-01-19T11:03:25.309Z,96.41
2023-01-19T11:05:54.373Z,99.23
2023-01-19T11:08:29.725Z,98.81
2023-01-19T11:11:03.747Z,99.47
2023-01-19T11:13:31.788Z,96.67
2023-01-19T11:16:05.364Z,92.96
2023-01-19T11:18:31.866Z,95.60
2023-01-19T11:21:02.346Z,93.38
2023-01-19T11:23:31.217Z,91.64
2023-01-19T11:26:05.190Z,92.90
2023-01-19T11:28:31.662Z,91.86
2023-01-19T11:31:04.009Z,87.75
2023-01-19T11:33:37.483Z,88.38
2023-01-19T11:36:30.223Z,89.11
2023-01-19T11:39:19.298Z,84.55
2023-01-19T11:41:53.156Z,88.83
2023-01-19T11:44:26.370Z,86.81
2023-01-19T11:46:58.556Z,90.67
2023-01-19T11:49:43.817Z,86.35
2023-01-19T11:52:31.437Z,86.55
2023-01-19T11:55:11.293Z,86.31
2023-01-19T11:57:43.228Z,88.64
2023-01-19T12:00:25.134Z,89.43
2023-01-19T12:02:59.425Z,89.26
2023-01-19T12:05:32.268Z,85.62
2023-01-19T12:08:07.118Z,83.10
2023-01-19T12:10:38.325Z,83.85
2023-01-19T12:13:13.060Z,82.12
2023-01-19T12:15:43.040Z,83.90
2023-01-19T12:18:18.251Z,83.19
2023-01-19T12:20:48.733Z,82.18
2023-01-19T12:23:15.287Z,81.89
2023-01-19T12:26:08.534Z,79.43
2023-01-19T12:28:40.414Z,79.45
2023-01-19T12:31:09.808Z,77.97
2023-01-19T12:33:39.144Z,82.76
2023-01-19T12:36:12.174Z,82.75
2023-01-19T12:38:52.868Z,78.29
2023-01-19T12:41:28.562Z,76.62
2023-01-19T12:44:19.274Z,77.64
2023-01-19T12:46:50.705Z,77.72
2023-01-19T12:49:23.948Z,75.65
2023-01-19T12:51:55.998Z,77.21
2023-01-19T12:54:34.553Z,78.04
2023-01-19T12:57:08.162Z,75.05
2023-01-19T12:59:37.495Z,76.25
2023-01-19T13:02:41.994Z,75.18
2023-01-19T13:05:15.011Z,73.92
2023-01-19T13:08:03.489Z,75.83
2023-01-19T13:11:05.748Z,76.75
2023-01-19T13:13:52.926Z,77.09
2023-01-19T13:16:19.736Z,74.96
2023-01-19T13:18:47.952Z,76.55
2023-01-19T13:21:34.910Z,76.82
2023-01-19T13:24:02.489Z,73.63
2023-01-19T13:26:30.755Z,75.45
2023-01-19T13:29:08.296Z,76.19
2023-01-19T13:31:43.004Z,76.68
2023-01-19T13:34:17.112Z,77.71
2023-01-19T13:36:50.868Z,74.36
2023-01-19T13:39:22.413Z,75.43
2023-01-19T13:41:53.337Z,74.58
2023-01-19T13:44:25.478Z,74.56
2023-01-19T13:46:53.592Z,75.47
2023-01-19T13:49:29.673Z,77.83
2023-01-19T13:52:13.834Z,77.50
2023-01-19T13:54:53.548Z,76.19
2023-01-19T13:57:30.754Z,79.30
2023-01-19T14:00:12.675Z,77.19
2023-01-19T14:02:52.416Z,76.37
2023-01-19T14:05:41.775Z,76.65
2023-01-19T14:08:11.355Z,76.74
2023-01-19T14:10:41.245Z,77.53
2023-01-19T14:13:29.458Z,78.06
2023-01-19T14:16:02.915Z,78.46
2023-01-19T14:18:34.843Z,78.43
2023-01-19T14:21:11.957Z,78.00
2023-01-19T14:23:48.823Z,78.76
2023-01-19T14:26:56.781Z,79.49
2023-01-19T14:29:38.492Z,81.70
2023-01-19T14:32:13.691Z,80.28
2023-01-19T14:34:44.969Z,81.63
2023-01-19T14:37:32.581Z,80.03
2023-01-19T14:40:15.876Z,81.56
2023-01-19T14:42:42.346Z,83.29
2023-01-19T14:45:22.485Z,81.35
2023-01-19T14:47:57.016Z,81.59
2023-01-19T14:50:31.654Z,82.47
2023-01-19T14:53:04.253Z,82.72
2023-01-19T14:55:49.961Z,83.65
2023-01-19T14:58:22.803Z,83.08
2023-01-19T15:00:56.067Z,83.45
2023-01-19T15:03:42.694Z,84.29
2023-01-19T15:06:14.783Z,85.62
2023-01-19T15:08:41.498Z,84.17
2023-01-19T15:11:23.956Z,85.64
2023-01-19T15:13:50.972Z,85.81
2023-01-19T15:16:18.308Z,86.65
2023-01-19T15:18:47.584Z,86.88
2023-01-19T15:21:26.397Z,88.58
2023-01-19T15:23:54.437Z,87.62
2023-01-19T15:26:23.980Z,86.59
2023-01-19T15:28:53.129Z,88.67
2023-01-19T15:31:25.301Z,90.27
2023-01-19T15:33:51.935Z,89.29
2023-01-19T15:36:21.222Z,89.73
2023-01-19T15:38:50.832Z,90.45
2023-01-19T15:41:30.557Z,90.15
2023-01-19T15:43:57.513Z,91.05
2023-01-19T15:46:25.829Z,91.38
2023-01-19T15:48:53.404Z,95.14
2023-01-19T15:51:25.915Z,94.79
2023-01-19T15:53:53.676Z,94.09
2023-01-19T15:56:24.767Z,96.77
2023-01-19T15:58:52.442Z,96.34
2023-01-19T16:01:21.701Z,100.00
2023-01-19T16:03:49.512Z,100.00
2023-01-19T16:06:18.408Z,100.00
2023-01-19T16:08:45.232Z,100.00
2023-01-19T16:11:14.755Z,100.00
2023-01-19T16:13:46.191Z,100.00
2023-01-19T16:16:21.060Z,100.00
2023-01-19T16:18:48.001Z,98.76
2023-01-19T16:21:14.739Z,100.00
2023-01-19T16:23:41.969Z,100.00
2023-01-19T16:26:25.301Z,100.00
2023-01-19T16:28:51.910Z,100.00
2023-01-19T16:31:18.566Z,100.00
2023-01-19T16:33:45.358Z,100.00
2023-01-19T16:36:47.492Z,100.00
2023-01-19T16:39:15.169Z,100.00
2023-01-19T16:41:44.771Z,100.00
2023-01-19T16:44:15.136Z,100.00
2023-01-19T16:46:45.604Z,100.00
2023-01-19T16:49:16.470Z,100.00
2023-01-19T16:51:43.523Z,100.00
2023-01-19T16:54:19.517Z,100.00
2023-01-19T16:56:46.671Z,100.00
2023-01-19T16:59:14.917Z,100.00
2023-01-19T17:01:42.460Z,100.00
2023-01-19T17:04:11.385Z,100.00
2023-01-19T17:06:40.303Z,100.00
2023-01-19T17:09:09.415Z,100.00
2023-01-19T17:11:36.900Z,100.00
2023-01-19T17:14:12.511Z,100.00
2023-01-19T17:16:42.459Z,100.00
2023-01-19T17:19:15.292Z,100.00
2023-01-19T17:21:46.371Z,100.00
2023-01-19T17:24:12.997Z,100.00
2023-01-19T17:26:39.585Z,100.00
2023-01-19T17:29:10.849Z,100.00
2023-01-19T17:31:40.169Z,100.00
2023-01-19T17:34:06.898Z,100.00
2023-01-19T17:36:36.212Z,100.00
2023-01-19T17:39:11.277Z,100.00
2023-01-19T17:41:37.849Z,100.00
2023-01-19T17:44:09.546Z,100.00
2023-01-19T17:46:38.024Z,100.00
2023-01-19T17:49:08.226Z,100.00
2023-01-19T17:51:35.096Z,100.00
2023-01-19T17:54:06.439Z,100.00
2023-01-19T17:56:37.628Z,100.00
2023-01-19T17:59:07.644Z,100.00
2023-01-19T18:01:40.067Z,100.00
2023-01-19T18:04:08.167Z,100.00
2023-01-19T18:06:37.497Z,100.00
2023-01-19T18:09:06.929Z,100.00
2023-01-19T18:11:36.257Z,100.00
2023-01-19T18:14:03.228Z,100.00
2023-01-19T18:16:32.541Z,100.00
2023-01-19T18:18:59.168Z,100.00
2023-01-19T18:21:28.222Z,100.00
2023-01-19T18:24:03.223Z,100.00
2023-01-19T18:26:31.465Z,100.00
2023-01-19T18:29:01.380Z,100.00
2023-01-19T18:31:30.421Z,100.00
2023-01-19T18:33:59.632Z,100.00
2023-01-19T18:36:26.653Z,100.00
2023-01-19T18:38:56.271Z,100.00
2023-01-19T18:41:25.243Z,100.00
2023-01-19T18:43:55.205Z,100.00
2023-01-19T18:46:27.469Z,100.00
2023-01-19T18:48:56.636Z,100.00
2023-01-19T18:51:25.703Z,100.00
2023-01-19T18:53:58.226Z,100.00
2023-01-19T18:56:27.241Z,100.00
2023-01-19T18:58:54.329Z,100.00
2023-01-19T19:01:23.519Z,100.00
2023-01-19T19:03:51.035Z,100.00
2023-01-19T19:06:20.683Z,100.00
2023-01-19T19:08:53.975Z,100.00
2023-01-19T19:11:25.005Z,100.00
2023-01-19T19:13:58.435Z,100.00
2023-01-19T19:16:27.781Z,100.00
2023-01-19T19:18:54.541Z,100.00
2023-01-19T19:21:24.014Z,100.00
2023-01-19T19:23:57.709Z,100.00
2023-01-19T19:26:25.846Z,100.00
2023-01-19T19:28:52.408Z,100.00
2023-01-19T19:31:21.237Z,100.00
2023-01-19T19:33:53.929Z,100.00
2023-01-19T19:36:24.078Z,100.00
2023-01-19T19:38:50.745Z,100.00
2023-01-19T19:41:23.323Z,100.00
2023-01-19T19:43:50.614Z,100.00
2023-01-19T19:46:21.842Z,100.00
2023-01-19T19:48:49.530Z,100.00
2023-01-19T19:51:29.948Z,100.00
2023-01-19T19:54:00.634Z,100.00
2023-01-19T19:56:30.051Z,100.00
2023-01-19T19:58:58.948Z,100.00
2023-01-19T20:01:32.666Z,100.00
2023-01-19T20:04:08.798Z,100.00
2023-01-19T20:06:39.834Z,100.00
2023-01-19T20:09:09.026Z,100.00
2023-01-19T20:11:38.864Z,100.00
2023-01-19T20:14:11.881Z,100.00
2023-01-19T20:16:43.297Z,100.00
2023-01-19T20:19:12.221Z,100.00
2023-01-19T20:21:44.124Z,100.00
2023-01-19T20:24:18.360Z,100.00
2023-01-19T20:26:52.578Z,100.00
2023-01-19T20:29:20.349Z,100.00
2023-01-19T20:31:50.306Z,100.00
2023-01-19T20:34:22.082Z,100.00
2023-01-19T20:36:50.347Z,100.00
2023-01-19T20:39:18.623Z,100.00
2023-01-19T20:41:50.863Z,100.00
2023-01-19T20:44:20.895Z,100.00
2023-01-19T20:46:47.799Z,100.00
2023-01-19T20:49:17.155Z,100.00
2023-01-19T20:51:46.036Z,100.00
2023-01-19T20:54:17.622Z,100.00
2023-01-19T20:56:44.292Z,100.00
2023-01-19T20:59:13.816Z,100.00
2023-01-19T21:01:41.017Z,100.00
2023-01-19T21:04:08.572Z,100.00
2023-01-19T21:06:35.932Z,100.00
2023-01-19T21:09:03.231Z,100.00
2023-01-19T21:11:30.123Z,100.00
2023-01-19T21:13:59.445Z,100.00
2023-01-19T21:16:28.359Z,100.00
2023-01-19T21:18:55.362Z,100.00
2023-01-19T21:21:30.883Z,100.00
2023-01-19T21:24:02.459Z,100.00
2023-01-19T21:26:31.650Z,100.00
2023-01-19T21:29:04.573Z,100.00
2023-01-19T21:31:33.681Z,100.00
2023-01-19T21:34:02.598Z,100.00
2023-01-19T21:36:31.381Z,100.00
2023-01-19T21:39:00.727Z,100.00
2023-01-19T21:41:32.070Z,100.00
2023-01-19T21:44:00.371Z,100.00
2023-01-19T21:46:29.600Z,100.00
2023-01-19T21:49:02.924Z,100.00
2023-01-19T21:51:33.469Z,100.00
2023-01-19T21:54:05.292Z,100.00
2023-01-19T21:56:32.221Z,100.00
2023-01-19T21:59:02.209Z,100.00
2023-01-19T22:01:29.398Z,100.00
2023-01-19T22:04:01.867Z,100.00
2023-01-19T22:06:28.810Z,100.00
2023-01-19T22:08:57.836Z,100.00
2023-01-19T22:11:24.920Z,100.00
2023-01-19T22:13:51.841Z,100.00
2023-01-19T22:16:20.711Z,100.00
2023-01-19T22:18:54.064Z,100.00
2023-01-19T22:21:35.600Z,100.00
2023-01-19T22:24:07.539Z,100.00
2023-01-19T22:26:35.016Z,100.00
2023-01-19T22:29:11.253Z,100.00
2023-01-19T22:31:43.167Z,100.00
2023-01-19T22:34:10.824Z,100.00
2023-01-19T22:36:41.907Z,100.00
2023-01-19T22:39:15.250Z,100.00
2023-01-19T22:41:46.239Z,100.00
2023-01-19T22:44:21.182Z,100.00
2023-01-19T22:46:49.407Z,100.00
2023-01-19T22:49:20.159Z,100.00
2023-01-19T22:51:54.046Z,100.00
2023-01-19T22:54:23.006Z,100.00
2023-01-19T22:56:49.756Z,100.00
2023-01-19T22:59:18.557Z,100.00
2023-01-19T23:01:45.671Z,100.00
2023-01-19T23:04:17.569Z,100.00
2023-01-19T23:06:50.447Z,100.00
2023-01-19T23:09:17.719Z,100.00
2023-01-19T23:11:50.259Z,100.00
2023-01-19T23:14:20.143Z,100.00
2023-01-19T23:16:47.261Z,100.00
2023-01-19T23:19:21.194Z,100.00
2023-01-19T23:21:53.162Z,100.00
2023-01-19T23:24:19.831Z,100.00
2023-01-19T23:26:48.381Z,100.00
2023-01-19T23:29:18.186Z,100.00
2023-01-19T23:31:47.239Z,100.00
2023-01-19T23:34:19.474Z,100.00
2023-01-19T23:36:48.373Z,100.00
2023-01-19T23:39:24.048Z,100.00
2023-01-19T23:41:50.945Z,100.00
2023-01-19T23:44:20.018Z,100.00
2023-01-19T23:46:46.956Z,100.00
2023-01-19T23:49:13.637Z,100.00
2023-01-19T23:51:40.861Z,100.00
2023-01-19T23:54:07.697Z,100.00
2023-01-19T23:56:36.612Z,100.00
2023-01-19T23:59:10.527Z,100.00
